Terminal Aerodrome Forecast
Issued by NWS Melbourne, FL

Home | Current Version | Previous Version | Text Only | Print | Product List | Glossary On
Versions: 1 2 3 4 5 6 7 8 9 10 11 12 13 14
000
FTUS42 KMLB 232300
TAFMLB
TAF
KMLB 232333Z 2400/2424 15008KT P6SM FEW015 BKN250
     FM240300 16008KT P6SM FEW008 SCT040 BKN250
     FM240600 17005KT 5SM BR OVC006
     FM241500 20010KT P6SM BKN015=

USA.gov is the U.S. government's official web portal to all federal, state and local government web resources and services.